Time,TemperatureF,DewpointF,PressureIn,WindDirection,WindDirectionDegrees,WindSpeedMPH,WindSpeedGustMPH,Humidity,HourlyPrecipIn,Conditions,Clouds,dailyrainin,SoftwareType,DateUTC
2013-09-01 00:05:00,70.0,69.7,29.76,WSW,237,0.0,0.0,99,0.00,,,0.00,Wunderground v.1.15,2013-09-01 04:05:00,
2013-09-01 00:10:00,69.9,69.6,29.77,WSW,237,0.0,0.0,99,0.00,,,0.00,Wunderground v.1.15,2013-09-01 04:10:00,
2013-09-01 00:15:00,70.1,69.8,29.77,WSW,237,0.0,0.0,99,0.00,,,0.00,Wunderground v.1.15,2013-09-01 04:15:00,
2013-09-01 00:25:00,70.0,69.7,29.78,WSW,237,0.0,0.0,99,0.00,,,0.00,Wunderground v.1.15,2013-09-01 04:25:00,
2013-09-01 00:30:00,70.1,69.8,29.78,WSW,237,0.0,0.0,99,0.00,,,0.00,Wunderground v.1.15,2013-09-01 04:30:00,
2013-09-01 00:35:00,70.1,69.8,29.77,WSW,237,0.0,0.0,99,0.00,,,0.00,Wunderground v.1.15,2013-09-01 04:35:00,
2013-09-01 00:45:00,69.9,69.6,29.77,WSW,237,0.0,0.0,99,0.00,,,0.00,Wunderground v.1.15,2013-09-01 04:45:00,
2013-09-01 00:55:00,69.7,69.4,29.77,WSW,237,0.0,0.0,99,0.00,,,0.00,Wunderground v.1.15,2013-09-01 04:55:00,
2013-09-01 01:00:00,69.5,69.2,29.77,WSW,237,0.0,0.0,99,0.00,,,0.00,Wunderground v.1.15,2013-09-01 05:00:00,
2013-09-01 01:05:00,69.4,69.1,29.76,WSW,237,0.0,0.0,99,0.00,,,0.00,Wunderground v.1.15,2013-09-01 05:05:00,
2013-09-01 01:15:00,69.2,68.9,29.76,WSW,237,0.0,0.0,99,0.00,,,0.00,Wunderground v.1.15,2013-09-01 05:15:00,
2013-09-01 01:20:00,69.1,68.8,29.76,WSW,237,0.0,0.0,99,0.00,,,0.00,Wunderground v.1.15,2013-09-01 05:20:00,
2013-09-01 01:25:00,69.0,68.7,29.76,WSW,237,0.0,0.0,99,0.00,,,0.00,Wunderground v.1.15,2013-09-01 05:25:00,
2013-09-01 01:35:00,68.8,68.5,29.76,WSW,237,0.0,0.0,99,0.00,,,0.00,Wunderground v.1.15,2013-09-01 05:35:00,
2013-09-01 01:40:00,68.7,68.4,29.76,WSW,237,0.0,0.0,99,0.00,,,0.00,Wunderground v.1.15,2013-09-01 05:40:00,
2013-09-01 01:50:00,68.5,68.2,29.77,WSW,237,0.0,0.0,99,0.00,,,0.00,Wunderground v.1.15,2013-09-01 05:50:00,
2013-09-01 01:55:00,68.4,68.1,29.76,WSW,237,0.0,0.0,99,0.00,,,0.00,Wunderground v.1.15,2013-09-01 05:55:00,
2013-09-01 02:05:00,68.2,67.9,29.77,WSW,237,0.0,0.0,99,0.00,,,0.00,Wunderground v.1.15,2013-09-01 06:05:00,
2013-09-01 02:10:00,68.1,67.8,29.76,WSW,237,0.0,0.0,99,0.00,,,0.00,Wunderground v.1.15,2013-09-01 06:10:00,
2013-09-01 02:20:00,68.0,68.0,29.76,WSW,237,0.0,0.0,100,0.00,,,0.00,Wunderground v.1.15,2013-09-01 06:20:00,
2013-09-01 02:25:00,68.1,67.8,29.76,WSW,237,0.0,0.0,99,0.00,,,0.00,Wunderground v.1.15,2013-09-01 06:25:00,
2013-09-01 02:30:00,67.9,67.6,29.76,WSW,237,0.0,0.0,99,0.00,,,0.00,Wunderground v.1.15,2013-09-01 06:30:00,
2013-09-01 02:35:00,67.9,67.6,29.76,WSW,237,0.0,0.0,99,0.00,,,0.00,Wunderground v.1.15,2013-09-01 06:35:00,
2013-09-01 02:45:00,67.8,67.5,29.76,WSW,237,0.0,0.0,99,0.00,,,0.00,Wunderground v.1.15,2013-09-01 06:45:00,
2013-09-01 02:55:00,67.7,67.4,29.76,WSW,237,0.0,0.0,99,0.00,,,0.00,Wunderground v.1.15,2013-09-01 06:55:00,
2013-09-01 03:00:00,67.6,67.3,29.76,WSW,237,0.0,0.0,99,0.00,,,0.00,Wunderground v.1.15,2013-09-01 07:00:00,
2013-09-01 03:10:00,67.5,67.2,29.76,WSW,237,0.0,0.0,99,0.00,,,0.00,Wunderground v.1.15,2013-09-01 07:10:00,
2013-09-01 03:15:00,67.5,67.2,29.76,WSW,237,0.0,0.0,99,0.00,,,0.00,Wunderground v.1.15,2013-09-01 07:15:00,
2013-09-01 03:20:00,67.5,67.2,29.76,WSW,237,0.0,0.0,99,0.00,,,0.00,Wunderground v.1.15,2013-09-01 07:20:00,
2013-09-01 03:25:00,67.5,67.5,29.76,WSW,237,0.0,0.0,100,0.00,,,0.00,Wunderground v.1.15,2013-09-01 07:25:00,
2013-09-01 03:35:00,67.3,67.0,29.75,WSW,237,0.0,0.0,99,0.00,,,0.00,Wunderground v.1.15,2013-09-01 07:35:00,
2013-09-01 03:40:00,67.3,67.0,29.76,WSW,237,0.0,0.0,99,0.00,,,0.00,Wunderground v.1.15,2013-09-01 07:40:00,
2013-09-01 03:45:00,67.4,67.4,29.76,WSW,237,0.0,0.0,100,0.00,,,0.00,Wunderground v.1.15,2013-09-01 07:45:00,
2013-09-01 03:55:00,67.2,66.9,29.76,WSW,237,0.0,0.0,99,0.00,,,0.00,Wunderground v.1.15,2013-09-01 07:55:00,
2013-09-01 04:05:00,67.3,67.0,29.77,WSW,237,0.0,0.0,99,0.00,,,0.00,Wunderground v.1.15,2013-09-01 08:05:00,
2013-09-01 04:10:00,67.4,67.1,29.78,WSW,237,0.0,0.0,99,0.00,,,0.00,Wunderground v.1.15,2013-09-01 08:10:00,
2013-09-01 04:15:00,67.4,67.4,29.78,WSW,237,0.0,0.0,100,0.00,,,0.00,Wunderground v.1.15,2013-09-01 08:15:00,
2013-09-01 04:25:00,67.5,67.5,29.78,WSW,237,0.0,0.0,100,0.00,,,0.00,Wunderground v.1.15,2013-09-01 08:25:00,
2013-09-01 04:30:00,67.5,67.5,29.78,WSW,237,0.0,0.0,100,0.00,,,0.00,Wunderground v.1.15,2013-09-01 08:30:00,
2013-09-01 04:35:00,67.4,67.1,29.78,WSW,237,0.0,0.0,99,0.00,,,0.00,Wunderground v.1.15,2013-09-01 08:35:00,
2013-09-01 04:45:00,67.3,67.0,29.78,WSW,237,0.0,0.0,99,0.00,,,0.00,Wunderground v.1.15,2013-09-01 08:45:00,
2013-09-01 04:50:00,67.3,67.0,29.79,SW,236,0.0,1.0,99,0.00,,,0.00,Wunderground v.1.15,2013-09-01 08:50:00,
2013-09-01 04:55:00,67.3,67.0,29.79,SW,236,0.0,1.0,99,0.00,,,0.00,Wunderground v.1.15,2013-09-01 08:55:00,
2013-09-01 05:05:00,67.4,67.1,29.79,WSW,240,0.0,1.0,99,0.00,,,0.00,Wunderground v.1.15,2013-09-01 09:05:00,
2013-09-01 05:15:00,67.4,67.1,29.79,WSW,243,0.0,3.0,99,0.00,,,0.00,Wunderground v.1.15,2013-09-01 09:15:00,
2013-09-01 05:20:00,67.5,67.2,29.79,WSW,242,0.0,0.0,99,0.00,,,0.00,Wunderground v.1.15,2013-09-01 09:20:00,
2013-09-01 05:30:00,67.4,67.1,29.79,WSW,243,0.0,0.0,99,0.00,,,0.00,Wunderground v.1.15,2013-09-01 09:30:00,
2013-09-01 05:35:00,67.3,67.0,29.79,WSW,243,0.0,0.0,99,0.00,,,0.00,Wunderground v.1.15,2013-09-01 09:35:00,
2013-09-01 05:40:00,67.3,67.0,29.79,WSW,243,0.0,0.0,99,0.00,,,0.01,Wunderground v.1.15,2013-09-01 09:40:00,
2013-09-01 05:45:00,67.2,66.9,29.79,WSW,243,0.0,0.0,99,0.00,,,0.01,Wunderground v.1.15,2013-09-01 09:45:00,
2013-09-01 05:55:00,67.0,66.7,29.80,WSW,243,0.0,0.0,99,0.00,,,0.01,Wunderground v.1.15,2013-09-01 09:55:00,
2013-09-01 06:05:00,66.8,66.5,29.79,WSW,242,0.0,0.0,99,0.00,,,0.01,Wunderground v.1.15,2013-09-01 10:05:00,
2013-09-01 06:10:00,66.8,66.5,29.79,WSW,243,0.0,0.0,99,0.00,,,0.01,Wunderground v.1.15,2013-09-01 10:10:00,
2013-09-01 06:15:00,66.8,66.5,29.79,WSW,243,0.0,0.0,99,0.00,,,0.01,Wunderground v.1.15,2013-09-01 10:15:00,
2013-09-01 06:25:00,66.7,66.4,29.80,WSW,243,0.0,0.0,99,0.00,,,0.01,Wunderground v.1.15,2013-09-01 10:25:00,
2013-09-01 06:35:00,67.0,66.7,29.80,WSW,243,0.0,0.0,99,0.00,,,0.01,Wunderground v.1.15,2013-09-01 10:35:00,
2013-09-01 06:40:00,67.1,66.8,29.80,WSW,243,0.0,0.0,99,0.00,,,0.01,Wunderground v.1.15,2013-09-01 10:40:00,
2013-09-01 06:45:00,67.2,66.9,29.80,WSW,242,0.0,0.0,99,0.00,,,0.01,Wunderground v.1.15,2013-09-01 10:45:00,
2013-09-01 06:55:00,67.5,67.2,29.80,WSW,242,0.0,0.0,99,0.00,,,0.01,Wunderground v.1.15,2013-09-01 10:55:00,
2013-09-01 07:00:00,67.6,67.3,29.80,WSW,243,0.0,0.0,99,0.00,,,0.01,Wunderground v.1.15,2013-09-01 11:00:00,
2013-09-01 07:05:00,67.8,67.5,29.81,WSW,243,0.0,0.0,99,0.00,,,0.01,Wunderground v.1.15,2013-09-01 11:05:00,
2013-09-01 07:15:00,68.0,67.7,29.82,WSW,243,0.0,0.0,99,0.00,,,0.01,Wunderground v.1.15,2013-09-01 11:15:00,
2013-09-01 07:20:00,68.1,67.8,29.82,WSW,243,0.0,0.0,99,0.00,,,0.01,Wunderground v.1.15,2013-09-01 11:20:00,
2013-09-01 07:25:00,68.3,67.7,29.82,WSW,242,0.0,0.0,98,0.00,,,0.01,Wunderground v.1.15,2013-09-01 11:25:00,
2013-09-01 07:35:00,68.8,68.2,29.82,WSW,242,0.0,0.0,98,0.00,,,0.01,Wunderground v.1.15,2013-09-01 11:35:00,
2013-09-01 07:45:00,69.4,68.5,29.83,WSW,242,0.0,0.0,97,0.00,,,0.01,Wunderground v.1.15,2013-09-01 11:45:00,
2013-09-01 07:50:00,69.8,68.6,29.82,WSW,242,0.0,0.0,96,0.00,,,0.01,Wunderground v.1.15,2013-09-01 11:50:00,
2013-09-01 08:00:00,70.7,69.2,29.82,WSW,242,0.0,0.0,95,0.00,,,0.01,Wunderground v.1.15,2013-09-01 12:00:00,
2013-09-01 08:05:00,71.1,69.6,29.83,WSW,242,0.0,0.0,95,0.00,,,0.01,Wunderground v.1.15,2013-09-01 12:05:00,
2013-09-01 08:10:00,71.5,69.7,29.83,WSW,242,0.0,0.0,94,0.00,,,0.01,Wunderground v.1.15,2013-09-01 12:10:00,
2013-09-01 08:15:00,71.8,69.7,29.83,WSW,242,0.0,0.0,93,0.00,,,0.01,Wunderground v.1.15,2013-09-01 12:15:00,
2013-09-01 08:25:00,72.6,70.1,29.83,SW,236,0.0,0.0,92,0.00,,,0.01,Wunderground v.1.15,2013-09-01 12:25:00,
2013-09-01 08:35:00,73.4,70.3,29.84,SW,236,0.0,0.0,90,0.00,,,0.01,Wunderground v.1.15,2013-09-01 12:35:00,
2013-09-01 08:45:00,74.0,70.2,29.83,SW,236,0.0,0.0,88,0.00,,,0.01,Wunderground v.1.15,2013-09-01 12:45:00,
2013-09-01 08:55:00,74.3,70.5,29.83,SW,234,0.0,0.0,88,0.00,,,0.01,Wunderground v.1.15,2013-09-01 12:55:00,
2013-09-01 09:00:00,74.2,70.7,29.83,SW,233,0.0,0.0,89,0.00,,,0.01,Wunderground v.1.15,2013-09-01 13:00:00,
2013-09-01 09:05:00,74.6,70.8,29.83,WSW,241,0.0,0.0,88,0.00,,,0.01,Wunderground v.1.15,2013-09-01 13:05:00,
2013-09-01 09:15:00,75.2,71.4,29.83,West,265,0.0,1.0,88,0.00,,,0.01,Wunderground v.1.15,2013-09-01 13:15:00,
2013-09-01 09:20:00,76.0,71.2,29.83,West,265,0.0,0.0,85,0.00,,,0.01,Wunderground v.1.15,2013-09-01 13:20:00,
2013-09-01 09:25:00,76.6,71.0,29.83,WSW,252,0.0,0.0,83,0.00,,,0.01,Wunderground v.1.15,2013-09-01 13:25:00,
2013-09-01 09:35:00,76.8,71.6,29.83,West,264,0.0,0.0,84,0.00,,,0.01,Wunderground v.1.15,2013-09-01 13:35:00,
2013-09-01 09:45:00,77.1,71.2,29.83,WSW,252,0.0,0.0,82,0.00,,,0.01,Wunderground v.1.15,2013-09-01 13:45:00,
2013-09-01 09:50:00,77.4,71.1,29.83,WSW,256,0.0,0.0,81,0.00,,,0.01,Wunderground v.1.15,2013-09-01 13:50:00,
2013-09-01 09:55:00,77.4,70.7,29.83,SSW,209,0.0,0.0,80,0.00,,,0.01,Wunderground v.1.15,2013-09-01 13:55:00,
2013-09-01 10:05:00,77.4,71.1,29.83,SW,234,0.0,0.0,81,0.00,,,0.01,Wunderground v.1.15,2013-09-01 14:05:00,
2013-09-01 10:10:00,77.5,71.6,29.83,SW,231,0.0,0.0,82,0.00,,,0.01,Wunderground v.1.15,2013-09-01 14:10:00,
2013-09-01 10:15:00,77.8,71.5,29.83,SW,231,0.0,0.0,81,0.00,,,0.01,Wunderground v.1.15,2013-09-01 14:15:00,
2013-09-01 10:25:00,77.9,70.9,29.84,SW,228,0.0,0.0,79,0.00,,,0.01,Wunderground v.1.15,2013-09-01 14:25:00,
2013-09-01 10:30:00,77.9,70.9,29.84,SW,229,0.0,0.0,79,0.00,,,0.01,Wunderground v.1.15,2013-09-01 14:30:00,
2013-09-01 10:35:00,78.5,70.7,29.84,SW,218,0.0,1.0,77,0.00,,,0.01,Wunderground v.1.15,2013-09-01 14:35:00,
2013-09-01 10:45:00,78.8,69.8,29.84,SW,219,0.0,0.0,74,0.00,,,0.01,Wunderground v.1.15,2013-09-01 14:45:00,
2013-09-01 10:55:00,78.4,71.0,29.84,SW,221,0.0,0.0,78,0.00,,,0.01,Wunderground v.1.15,2013-09-01 14:55:00,
2013-09-01 11:00:00,77.8,69.2,29.84,SW,221,0.0,0.0,75,0.00,,,0.01,Wunderground v.1.15,2013-09-01 15:00:00,
2013-09-01 11:10:00,78.1,71.4,29.84,SW,221,0.0,0.0,80,0.00,,,0.01,Wunderground v.1.15,2013-09-01 15:10:00,
2013-09-01 11:15:00,78.0,69.8,29.84,SW,221,0.0,0.0,76,0.00,,,0.01,Wunderground v.1.15,2013-09-01 15:15:00,
2013-09-01 11:20:00,77.9,70.1,29.84,SW,221,0.0,0.0,77,0.00,,,0.01,Wunderground v.1.15,2013-09-01 15:20:00,
2013-09-01 11:25:00,77.6,70.2,29.84,SW,221,0.0,0.0,78,0.00,,,0.01,Wunderground v.1.15,2013-09-01 15:25:00,
2013-09-01 11:35:00,77.5,70.8,29.84,SW,221,0.0,0.0,80,0.00,,,0.01,Wunderground v.1.15,2013-09-01 15:35:00,
2013-09-01 11:40:00,77.7,70.7,29.84,SW,221,0.0,0.0,79,0.00,,,0.01,Wunderground v.1.15,2013-09-01 15:40:00,
2013-09-01 11:50:00,78.0,71.0,29.84,SW,221,0.0,0.0,79,0.00,,,0.01,Wunderground v.1.15,2013-09-01 15:50:00,
2013-09-01 11:55:00,78.3,70.1,29.84,SW,221,0.0,0.0,76,0.00,,,0.01,Wunderground v.1.15,2013-09-01 15:55:00,
2013-09-01 12:05:00,78.7,70.9,29.84,SW,221,0.0,0.0,77,0.00,,,0.01,Wunderground v.1.15,2013-09-01 16:05:00,
2013-09-01 12:10:00,78.5,70.3,29.84,SW,221,0.0,0.0,76,0.00,,,0.01,Wunderground v.1.15,2013-09-01 16:10:00,
2013-09-01 12:15:00,78.5,71.1,29.84,SW,221,0.0,0.0,78,0.00,,,0.01,Wunderground v.1.15,2013-09-01 16:15:00,
2013-09-01 12:25:00,78.4,70.6,29.83,SW,221,0.0,0.0,77,0.00,,,0.01,Wunderground v.1.15,2013-09-01 16:25:00,
2013-09-01 12:30:00,78.5,70.7,29.83,SW,221,0.0,0.0,77,0.00,,,0.01,Wunderground v.1.15,2013-09-01 16:30:00,
2013-09-01 12:35:00,78.7,71.3,29.83,SW,221,0.0,0.0,78,0.00,,,0.01,Wunderground v.1.15,2013-09-01 16:35:00,
2013-09-01 12:45:00,79.0,70.8,29.83,SW,221,0.0,0.0,76,0.00,,,0.01,Wunderground v.1.15,2013-09-01 16:45:00,
2013-09-01 12:55:00,78.7,70.1,29.83,SW,221,0.0,0.0,75,0.00,,,0.01,Wunderground v.1.15,2013-09-01 16:55:00,
2013-09-01 13:00:00,79.1,70.5,29.83,SW,221,0.0,0.0,75,0.00,,,0.01,Wunderground v.1.15,2013-09-01 17:00:00,
2013-09-01 13:05:00,79.4,71.2,29.83,SW,221,0.0,0.0,76,0.00,,,0.01,Wunderground v.1.15,2013-09-01 17:05:00,
2013-09-01 13:15:00,79.9,71.7,29.83,SW,221,0.0,0.0,76,0.00,,,0.01,Wunderground v.1.15,2013-09-01 17:15:00,
2013-09-01 13:20:00,80.6,71.9,29.83,SW,221,0.0,1.0,75,0.00,,,0.01,Wunderground v.1.15,2013-09-01 17:20:00,
2013-09-01 13:25:00,80.2,71.2,29.83,SW,214,0.0,1.0,74,0.00,,,0.01,Wunderground v.1.15,2013-09-01 17:25:00,
2013-09-01 13:35:00,80.5,71.8,29.83,SSW,210,0.0,0.0,75,0.00,,,0.01,Wunderground v.1.15,2013-09-01 17:35:00,
2013-09-01 13:40:00,80.3,70.0,29.83,SSW,203,0.0,0.0,71,0.00,,,0.01,Wunderground v.1.15,2013-09-01 17:40:00,
2013-09-01 13:45:00,80.6,70.3,29.83,SSW,204,0.0,2.0,71,0.00,,,0.01,Wunderground v.1.15,2013-09-01 17:45:00,
2013-09-01 13:55:00,81.2,72.1,29.82,SSW,202,0.0,0.0,74,0.00,,,0.01,Wunderground v.1.15,2013-09-01 17:55:00,
2013-09-01 14:05:00,81.4,73.5,29.82,SSE,159,0.0,0.0,77,0.00,,,0.01,Wunderground v.1.15,2013-09-01 18:05:00,
2013-09-01 14:10:00,81.8,73.1,29.82,SSE,159,0.0,0.0,75,0.00,,,0.01,Wunderground v.1.15,2013-09-01 18:10:00,
2013-09-01 14:20:00,82.0,70.8,29.82,SSE,155,0.0,0.0,69,0.00,,,0.01,Wunderground v.1.15,2013-09-01 18:20:00,
2013-09-01 14:25:00,81.6,68.7,29.82,SSE,155,0.0,0.0,65,0.00,,,0.01,Wunderground v.1.15,2013-09-01 18:25:00,
2013-09-01 14:30:00,81.9,70.3,29.82,SSE,155,0.0,0.0,68,0.00,,,0.01,Wunderground v.1.15,2013-09-01 18:30:00,
2013-09-01 14:35:00,82.0,69.5,29.82,SSE,155,0.0,0.0,66,0.00,,,0.01,Wunderground v.1.15,2013-09-01 18:35:00,
2013-09-01 14:45:00,81.5,70.3,29.82,SSE,155,0.0,0.0,69,0.00,,,0.01,Wunderground v.1.15,2013-09-01 18:45:00,
2013-09-01 14:50:00,81.2,71.7,29.82,SSE,155,0.0,0.0,73,0.00,,,0.01,Wunderground v.1.15,2013-09-01 18:50:00,
2013-09-01 15:00:00,80.7,69.6,29.82,SSE,155,0.0,0.0,69,0.00,,,0.01,Wunderground v.1.15,2013-09-01 19:00:00,
2013-09-01 15:05:00,80.1,70.3,29.82,SSE,155,0.0,0.0,72,0.00,,,0.01,Wunderground v.1.15,2013-09-01 19:05:00,
2013-09-01 15:15:00,80.4,70.9,29.82,SSE,155,0.0,0.0,73,0.00,,,0.01,Wunderground v.1.15,2013-09-01 19:15:00,
2013-09-01 15:20:00,80.6,72.3,29.82,SSE,155,0.0,0.0,76,0.00,,,0.01,Wunderground v.1.15,2013-09-01 19:20:00,
2013-09-01 15:25:00,81.1,71.6,29.82,SSE,155,0.0,0.0,73,0.00,,,0.01,Wunderground v.1.15,2013-09-01 19:25:00,
2013-09-01 15:35:00,80.6,70.7,29.81,SE,133,0.0,0.0,72,0.00,,,0.01,Wunderground v.1.15,2013-09-01 19:35:00,
2013-09-01 15:40:00,80.5,69.8,29.81,SSE,167,0.0,0.0,70,0.00,,,0.01,Wunderground v.1.15,2013-09-01 19:40:00,
2013-09-01 15:45:00,80.6,69.9,29.81,South,177,0.0,0.0,70,0.00,,,0.01,Wunderground v.1.15,2013-09-01 19:45:00,
2013-09-01 15:55:00,79.4,70.8,29.81,SSW,192,0.0,0.0,75,0.00,,,0.01,Wunderground v.1.15,2013-09-01 19:55:00,
2013-09-01 16:00:00,78.7,71.3,29.81,South,191,0.0,0.0,78,0.00,,,0.01,Wunderground v.1.15,2013-09-01 20:00:00,
2013-09-01 16:05:00,78.2,71.2,29.81,SSW,192,0.0,0.0,79,0.00,,,0.01,Wunderground v.1.15,2013-09-01 20:05:00,
2013-09-01 16:15:00,78.7,72.7,29.81,SSW,192,0.0,0.0,82,0.00,,,0.01,Wunderground v.1.15,2013-09-01 20:15:00,
2013-09-01 16:20:00,78.7,72.0,29.82,South,191,0.0,0.0,80,0.00,,,0.01,Wunderground v.1.15,2013-09-01 20:20:00,
2013-09-01 16:25:00,78.5,71.8,29.82,SSW,192,0.0,0.0,80,0.00,,,0.01,Wunderground v.1.15,2013-09-01 20:25:00,
2013-09-01 16:35:00,78.2,71.9,29.82,SSW,192,0.0,0.0,81,0.00,,,0.01,Wunderground v.1.15,2013-09-01 20:35:00,
2013-09-01 16:45:00,78.7,72.4,29.82,South,191,0.0,0.0,81,0.00,,,0.01,Wunderground v.1.15,2013-09-01 20:45:00,
2013-09-01 16:50:00,78.7,73.1,29.82,South,191,0.0,0.0,83,0.00,,,0.01,Wunderground v.1.15,2013-09-01 20:50:00,
2013-09-01 16:55:00,78.7,72.4,29.82,SSW,192,0.0,0.0,81,0.00,,,0.01,Wunderground v.1.15,2013-09-01 20:55:00,
2013-09-01 17:05:00,78.6,71.5,29.82,SSW,192,0.0,0.0,79,0.00,,,0.01,Wunderground v.1.15,2013-09-01 21:05:00,
2013-09-01 17:10:00,79.0,72.3,29.81,SSW,192,0.0,0.0,80,0.00,,,0.01,Wunderground v.1.15,2013-09-01 21:10:00,
2013-09-01 17:15:00,79.1,71.6,29.81,South,191,0.0,0.0,78,0.00,,,0.01,Wunderground v.1.15,2013-09-01 21:15:00,
2013-09-01 17:25:00,79.0,71.2,29.82,South,191,0.0,0.0,77,0.00,,,0.01,Wunderground v.1.15,2013-09-01 21:25:00,
2013-09-01 17:35:00,78.9,70.7,29.82,South,191,0.0,0.0,76,0.00,,,0.01,Wunderground v.1.15,2013-09-01 21:35:00,
2013-09-01 17:40:00,78.9,71.8,29.82,South,191,0.0,0.0,79,0.00,,,0.01,Wunderground v.1.15,2013-09-01 21:40:00,
2013-09-01 17:45:00,78.8,71.7,29.82,South,191,0.0,0.0,79,0.00,,,0.01,Wunderground v.1.15,2013-09-01 21:45:00,
2013-09-01 17:55:00,78.1,72.2,29.82,South,191,0.0,0.0,82,0.00,,,0.01,Wunderground v.1.15,2013-09-01 21:55:00,
2013-09-01 18:00:00,77.8,72.2,29.82,South,191,0.0,0.0,83,0.00,,,0.01,Wunderground v.1.15,2013-09-01 22:00:00,
2013-09-01 18:10:00,77.3,71.7,29.81,South,191,0.0,0.0,83,0.00,,,0.01,Wunderground v.1.15,2013-09-01 22:10:00,
2013-09-01 18:15:00,77.2,72.0,29.81,South,191,0.0,0.0,84,0.00,,,0.01,Wunderground v.1.15,2013-09-01 22:15:00,
2013-09-01 18:20:00,77.0,71.8,29.81,South,191,0.0,0.0,84,0.00,,,0.01,Wunderground v.1.15,2013-09-01 22:20:00,
2013-09-01 18:25:00,77.0,71.8,29.81,South,191,0.0,0.0,84,0.00,,,0.01,Wunderground v.1.15,2013-09-01 22:25:00,
2013-09-01 18:35:00,76.7,71.8,29.81,South,191,0.0,0.0,85,0.00,,,0.01,Wunderground v.1.15,2013-09-01 22:35:00,
2013-09-01 18:45:00,76.1,71.9,29.81,SSW,192,0.0,0.0,87,0.00,,,0.01,Wunderground v.1.15,2013-09-01 22:45:00,
2013-09-01 18:50:00,75.9,71.8,29.81,SSW,192,0.0,0.0,87,0.00,,,0.01,Wunderground v.1.15,2013-09-01 22:50:00,
2013-09-01 18:55:00,75.7,72.2,29.81,South,191,0.0,0.0,89,0.00,,,0.01,Wunderground v.1.15,2013-09-01 22:55:00,
2013-09-01 19:05:00,75.5,72.4,29.82,South,191,0.0,0.0,90,0.00,,,0.01,Wunderground v.1.15,2013-09-01 23:05:00,
2013-09-01 19:10:00,75.3,72.2,29.82,SSW,192,0.0,0.0,90,0.00,,,0.01,Wunderground v.1.15,2013-09-01 23:10:00,
2013-09-01 19:15:00,75.2,72.1,29.82,SSW,192,0.0,0.0,90,0.00,,,0.01,Wunderground v.1.15,2013-09-01 23:15:00,
2013-09-01 19:25:00,75.1,72.3,29.83,South,191,0.0,0.0,91,0.00,,,0.01,Wunderground v.1.15,2013-09-01 23:25:00,
2013-09-01 19:35:00,74.7,71.9,29.82,South,191,0.0,0.0,91,0.00,,,0.01,Wunderground v.1.15,2013-09-01 23:35:00,
2013-09-01 19:40:00,74.6,71.8,29.82,SSW,192,0.0,0.0,91,0.00,,,0.01,Wunderground v.1.15,2013-09-01 23:40:00,
2013-09-01 19:45:00,74.6,71.8,29.82,ENE,61,0.0,4.0,91,0.00,,,0.01,Wunderground v.1.15,2013-09-01 23:45:00,
2013-09-01 19:55:00,74.3,71.5,29.82,ENE,78,3.0,3.0,91,0.00,,,0.01,Wunderground v.1.15,2013-09-01 23:55:00,
2013-09-01 20:00:00,74.1,71.3,29.83,East,90,1.0,1.0,91,0.00,,,0.01,Wunderground v.1.15,2013-09-02 00:00:00,
2013-09-01 20:05:00,74.0,71.2,29.83,ESE,105,1.0,2.0,91,0.00,,,0.01,Wunderground v.1.15,2013-09-02 00:05:00,
2013-09-01 20:15:00,73.8,71.0,29.83,ESE,109,2.0,2.0,91,0.00,,,0.01,Wunderground v.1.15,2013-09-02 00:15:00,
2013-09-01 20:25:00,73.5,71.0,29.84,SW,224,0.0,1.0,92,1.14,,,0.05,Wunderground v.1.15,2013-09-02 00:25:00,
2013-09-01 20:30:00,71.8,69.0,29.85,ESE,102,1.0,4.0,91,6.55,,,0.45,Wunderground v.1.15,2013-09-02 00:30:00,
2013-09-01 20:40:00,69.8,68.3,29.84,ESE,109,2.0,6.0,95,0.26,,,0.65,Wunderground v.1.15,2013-09-02 00:40:00,
2013-09-01 20:45:00,70.0,68.8,29.84,SE,127,1.0,6.0,96,0.08,,,0.65,Wunderground v.1.15,2013-09-02 00:45:00,
2013-09-01 20:55:00,70.0,69.1,29.84,East,84,0.0,1.0,97,0.00,,,0.65,Wunderground v.1.15,2013-09-02 00:55:00,
2013-09-01 21:00:00,69.9,69.0,29.84,East,84,0.0,0.0,97,0.32,,,0.67,Wunderground v.1.15,2013-09-02 01:00:00,
2013-09-01 21:05:00,69.9,69.0,29.84,East,84,0.0,0.0,97,0.09,,,0.67,Wunderground v.1.15,2013-09-02 01:05:00,
2013-09-01 21:15:00,69.8,69.2,29.83,East,84,0.0,0.0,98,0.04,,,0.67,Wunderground v.1.15,2013-09-02 01:15:00,
2013-09-01 21:20:00,69.8,69.2,29.83,East,84,0.0,0.0,98,0.00,,,0.67,Wunderground v.1.15,2013-09-02 01:20:00,
2013-09-01 21:25:00,69.8,69.2,29.83,East,84,0.0,0.0,98,0.00,,,0.67,Wunderground v.1.15,2013-09-02 01:25:00,
2013-09-01 21:35:00,69.7,69.1,29.84,East,84,0.0,0.0,98,0.00,,,0.67,Wunderground v.1.15,2013-09-02 01:35:00,
2013-09-01 21:45:00,69.7,69.1,29.83,East,84,0.0,0.0,98,0.00,,,0.67,Wunderground v.1.15,2013-09-02 01:45:00,
2013-09-01 21:50:00,69.8,69.2,29.84,East,84,0.0,0.0,98,0.00,,,0.67,Wunderground v.1.15,2013-09-02 01:50:00,
2013-09-01 22:00:00,70.0,69.7,29.84,East,84,0.0,0.0,99,0.00,,,0.67,Wunderground v.1.15,2013-09-02 02:00:00,
2013-09-01 22:05:00,70.0,69.7,29.84,ENE,76,0.0,2.0,99,0.00,,,0.67,Wunderground v.1.15,2013-09-02 02:05:00,
2013-09-01 22:10:00,70.2,69.9,29.85,ENE,74,0.0,0.0,99,0.00,,,0.67,Wunderground v.1.15,2013-09-02 02:10:00,
2013-09-01 22:15:00,70.2,69.9,29.85,ENE,74,0.0,0.0,99,0.00,,,0.67,Wunderground v.1.15,2013-09-02 02:15:00,
2013-09-01 22:25:00,70.2,69.9,29.85,ENE,71,0.0,0.0,99,0.00,,,0.68,Wunderground v.1.15,2013-09-02 02:25:00,
2013-09-01 22:30:00,70.2,69.9,29.85,ENE,71,0.0,0.0,99,0.14,,,0.69,Wunderground v.1.15,2013-09-02 02:30:00,
2013-09-01 22:35:00,70.1,69.8,29.85,ENE,71,0.0,0.0,99,0.11,,,0.70,Wunderground v.1.15,2013-09-02 02:35:00,
2013-09-01 22:45:00,70.0,69.7,29.85,ENE,71,0.0,0.0,99,0.04,,,0.70,Wunderground v.1.15,2013-09-02 02:45:00,
2013-09-01 22:55:00,69.9,69.6,29.85,ENE,72,0.0,0.0,99,0.00,,,0.70,Wunderground v.1.15,2013-09-02 02:55:00,
2013-09-01 23:00:00,70.0,69.7,29.85,ENE,72,0.0,0.0,99,0.00,,,0.70,Wunderground v.1.15,2013-09-02 03:00:00,
2013-09-01 23:05:00,69.9,69.6,29.85,ENE,73,0.0,0.0,99,0.00,,,0.70,Wunderground v.1.15,2013-09-02 03:05:00,
2013-09-01 23:15:00,69.9,69.6,29.85,ENE,71,0.0,0.0,99,0.00,,,0.70,Wunderground v.1.15,2013-09-02 03:15:00,
2013-09-01 23:20:00,69.9,69.6,29.85,ENE,71,0.0,1.0,99,0.00,,,0.70,Wunderground v.1.15,2013-09-02 03:20:00,
2013-09-01 23:25:00,69.9,69.6,29.85,ENE,71,0.0,1.0,99,0.00,,,0.70,Wunderground v.1.15,2013-09-02 03:25:00,
2013-09-01 23:35:00,69.7,69.4,29.85,East,85,0.0,0.0,99,0.00,,,0.71,Wunderground v.1.15,2013-09-02 03:35:00,
2013-09-01 23:45:00,69.5,69.2,29.85,East,85,0.0,0.0,99,0.00,,,0.71,Wunderground v.1.15,2013-09-02 03:45:00,
2013-09-01 23:50:00,69.3,69.0,29.85,East,85,0.0,0.0,99,0.00,,,0.71,Wunderground v.1.15,2013-09-02 03:50:00,
2013-09-01 23:55:00,69.2,68.9,29.85,East,85,0.0,0.0,99,0.00,,,0.71,Wunderground v.1.15,2013-09-02 03:55:00,